Aeroporto :
LOGIN :

Iscrizione | Disclaimer

   EN    FR    IT 

 










Sommario :    VFR   VFR Marginale   IFR   IFR Intensivo   IFR Molto Intensivo
Visibilità : 
Base nubi : 
>= 8 km
>= 3000ft
5 / 8 km
1000 / 3000 ft
1500m / 5 km
500 / 1000 ft
800 / 1500m
200 / 500 ft
< 800m
< 200 ft
Simboli :   Temporali  Nebbia  Neve Forte  Precipitazioni Forti  Vento > 20 kt
SIGMETs :   Varie  Temporali  Ghiacco  Turbolenza  Onda orograficha  Ceneri Vulcaniche







- Altitudine del aeroporto : 407 ft


EGDM - MoD Boscombe Down Amesbury

ULTIMO METAR :
  • 191220Z 20013KT 5000 -RA BKN003 OVC010 17/17 Q1010 TEMPO BKN005 RMK YLO2 TEMPO YLO1

METARs OBSOLETI :
  • 191150Z 20013KT 4000 -RADZ BKN003 OVC010 17/16 Q1010 TEMPO 8000 BKN005 RMK YLO2 TEMPO YLO1
  • 191120Z 18012KT 4000 -RADZ BKN003 OVC010 17/16 Q1010 TEMPO 8000 BKN005 RMK YLO2 TEMPO YLO1
  • 191050Z 18010KT 9000 -RADZ BKN003 OVC010 16/16 Q1010 BECMG BKN005 RMK YLO2 BECMG YLO1
  • 191020Z 18012KT 4500 -RADZ BKN003 OVC010 16/15 Q1011 TEMPO 8000 BKN006 RMK YLO2 TEMPO YLO1
  • 190950Z 17012KT 4500 -RADZ BKN004 OVC010 16/15 Q1011 TEMPO 8000 BKN006 RMK YLO2 TEMPO YLO1
  • 190932Z 17012KT 4500 -RADZ BKN004 OVC010 15/15 Q1011 TEMPO 8000 BKN006 RMK YLO2 TEMPO YLO1
  • 190920Z 17012KT 5000 -RADZ FEW004 BKN005 15/14 Q1011 TEMPO 9999 NSW RMK YLO1 TEMPO YLO1

TAF TAF EGDM
Valido dal 19 a 12 ore il 19 a 17 ore UTC


191045Z 1912/1917 20014KT 9999 BKN006
TEMPO 1912/1917 3500 -RADZ BKN004
PROB40
TEMPO 1912/1917 21015G25KT BKN009
Nessun NOTAM noto per questo aeroporto.



MetMap, La meteo Aeronautica in un colpo d'occhio ! - Copyright ORBIFLY Dicembre 2007 - Disclaimer

ORBIFLY MET'MAP TEAM :

Programmazione e sviluppo : Alexandra Zaïnal
Concezione e sviluppo : Baudouin d'Aumeries
Co-Programmazione e sviluppo : Marc-Olivier Méhu
Supporto tecnico e logistico : Manuel Goepfert
Aiuto per la traduzione : Arnaldo La Scala

Contatto : metmap@orbifly.com




FONTI E CREDITI :

   NOAA